Time;durP1;ratioP1;P1;durP2;ratioP2;P2;SDS_P1;SDS_P2;PMS_P1;PMS_P2;Temp;Humidity;BMP_temperature;BMP_pressure;BME280_temperature;BME280_humidity;BME280_pressure;Samples;Min_cycle;Max_cycle;Signal;HPM_P1;HPM_P2
2022/03/26 00:00:29;;;;;;;63.85;30.27;;;;;;;;;;4992699;28;20465;-65
2022/03/26 00:02:56;;;;;;;59.00;31.67;;;;;;;;;;4991898;28;20034;-65
2022/03/26 00:05:22;;;;;;;68.20;32.05;;;;;;;;;;4992347;28;20432;-65
2022/03/26 00:07:48;;;;;;;65.85;30.92;;;;;;;;;;4992510;28;20097;-65
2022/03/26 00:10:15;;;;;;;65.47;31.63;;;;;;;;;;4992066;28;20121;-65
2022/03/26 00:12:41;;;;;;;69.28;32.42;;;;;;;;;;4992499;28;20815;-65
2022/03/26 00:15:08;;;;;;;70.20;33.45;;;;;;;;;;4992479;28;20048;-65
2022/03/26 00:17:34;;;;;;;63.70;32.35;;;;;;;;;;4992001;28;20060;-65
2022/03/26 00:20:00;;;;;;;66.50;31.98;;;;;;;;;;4992407;28;20647;-65
2022/03/26 00:22:26;;;;;;;63.60;32.80;;;;;;;;;;4992555;28;20469;-65
2022/03/26 00:24:52;;;;;;;67.32;30.88;;;;;;;;;;4991883;28;20058;-65
2022/03/26 00:27:18;;;;;;;59.88;30.23;;;;;;;;;;4975026;28;20039;-65
2022/03/26 00:29:45;;;;;;;61.15;31.63;;;;;;;;;;4972944;28;20188;-65
2022/03/26 00:32:11;;;;;;;67.35;31.08;;;;;;;;;;4972331;28;20109;-65
2022/03/26 00:34:37;;;;;;;58.22;29.92;;;;;;;;;;4972914;28;20043;-65
2022/03/26 00:37:04;;;;;;;61.25;31.02;;;;;;;;;;4972793;28;20045;-65
2022/03/26 00:39:30;;;;;;;62.67;31.48;;;;;;;;;;4971133;28;20178;-65
2022/03/26 00:41:57;;;;;;;65.80;32.65;;;;;;;;;;4972657;28;20519;-65
2022/03/26 00:44:23;;;;;;;68.05;32.50;;;;;;;;;;4972769;28;20042;-65
2022/03/26 00:46:49;;;;;;;67.15;33.90;;;;;;;;;;4972078;28;20050;-65
2022/03/26 00:49:16;;;;;;;69.82;33.10;;;;;;;;;;4972698;28;20378;-65
2022/03/26 00:51:42;;;;;;;70.57;33.35;;;;;;;;;;4972596;28;20050;-65
2022/03/26 00:54:08;;;;;;;68.90;33.45;;;;;;;;;;4972004;28;20047;-65
2022/03/26 00:56:38;;;;;;;73.57;33.20;;;;;;;;;;4972579;28;20050;-65
2022/03/26 00:59:05;;;;;;;71.88;34.13;;;;;;;;;;4975535;28;20122;-65
2022/03/26 01:01:32;;;;;;;72.07;33.63;;;;;;;;;;4975767;28;20054;-65
2022/03/26 01:03:58;;;;;;;74.70;33.83;;;;;;;;;;4976349;28;20126;-65
2022/03/26 01:06:25;;;;;;;73.07;34.97;;;;;;;;;;4975994;28;20049;-65
2022/03/26 01:08:51;;;;;;;74.10;35.90;;;;;;;;;;4975847;28;20086;-65
2022/03/26 01:11:17;;;;;;;77.93;37.08;;;;;;;;;;4976324;28;20086;-65
2022/03/26 01:13:44;;;;;;;72.25;36.38;;;;;;;;;;4976172;28;20135;-65
2022/03/26 01:16:10;;;;;;;71.68;34.78;;;;;;;;;;4975572;28;20038;-65
2022/03/26 01:18:36;;;;;;;69.13;34.90;;;;;;;;;;4976256;28;20043;-65
2022/03/26 01:21:03;;;;;;;73.82;34.28;;;;;;;;;;4975997;28;20070;-65
2022/03/26 01:23:30;;;;;;;69.03;34.28;;;;;;;;;;4975156;28;20046;-65
2022/03/26 01:25:56;;;;;;;68.75;33.20;;;;;;;;;;4981945;28;20034;-65
2022/03/26 01:28:22;;;;;;;68.28;32.47;;;;;;;;;;4995369;28;20379;-65
2022/03/26 01:30:48;;;;;;;75.05;35.20;;;;;;;;;;4994778;28;20042;-65
2022/03/26 01:33:14;;;;;;;68.18;33.63;;;;;;;;;;4995534;28;20042;-65
2022/03/26 01:35:40;;;;;;;73.40;35.97;;;;;;;;;;4995080;28;20045;-65
2022/03/26 01:38:07;;;;;;;73.72;35.08;;;;;;;;;;4994583;28;20369;-65
2022/03/26 01:40:33;;;;;;;72.63;33.60;;;;;;;;;;4994990;28;20042;-65
2022/03/26 01:42:59;;;;;;;70.47;32.83;;;;;;;;;;4994744;28;20050;-65
2022/03/26 01:45:27;;;;;;;67.95;31.92;;;;;;;;;;4994407;28;20086;-65
2022/03/26 01:47:53;;;;;;;69.05;31.85;;;;;;;;;;4994938;28;20042;-65
2022/03/26 01:50:19;;;;;;;70.43;33.70;;;;;;;;;;4995005;28;20049;-65
2022/03/26 01:52:46;;;;;;;75.20;36.42;;;;;;;;;;4994674;28;20539;-65
2022/03/26 01:55:12;;;;;;;68.38;33.08;;;;;;;;;;4994500;28;20499;-65
2022/03/26 01:57:39;;;;;;;74.00;34.63;;;;;;;;;;4994571;28;20104;-65
2022/03/26 02:00:08;;;;;;;70.20;33.92;;;;;;;;;;4993627;28;20042;-65
2022/03/26 02:02:34;;;;;;;70.35;35.20;;;;;;;;;;4994354;28;20448;-65
2022/03/26 02:05:00;;;;;;;78.82;35.30;;;;;;;;;;4994827;28;20129;-65
2022/03/26 02:07:26;;;;;;;80.95;34.50;;;;;;;;;;4993576;28;20094;-65
2022/03/26 02:09:52;;;;;;;76.47;36.38;;;;;;;;;;4994088;28;20520;-65
2022/03/26 02:12:29;;;;;;;75.63;34.78;;;;;;;;;;4994554;28;20054;-65
2022/03/26 02:14:56;;;;;;;69.40;31.80;;;;;;;;;;4994763;28;20058;-65
2022/03/26 02:17:22;;;;;;;71.68;32.58;;;;;;;;;;4994205;28;20350;-65
2022/03/26 02:19:50;;;;;;;75.63;34.85;;;;;;;;;;4994294;28;20039;-65
2022/03/26 02:22:17;;;;;;;73.32;33.58;;;;;;;;;;4994635;28;20047;-65
2022/03/26 02:24:43;;;;;;;70.15;33.30;;;;;;;;;;4993861;28;20048;-65
2022/03/26 02:27:10;;;;;;;68.28;32.20;;;;;;;;;;4978232;28;20061;-65
2022/03/26 02:29:36;;;;;;;67.80;30.75;;;;;;;;;;4975031;28;20401;-65
2022/03/26 02:32:02;;;;;;;65.90;31.50;;;;;;;;;;4973015;28;20497;-65
2022/03/26 02:34:28;;;;;;;70.63;32.55;;;;;;;;;;4974598;28;20555;-65
2022/03/26 02:36:55;;;;;;;62.85;30.42;;;;;;;;;;4973437;28;20393;-65
2022/03/26 02:39:21;;;;;;;64.82;31.23;;;;;;;;;;4972902;28;20047;-65
2022/03/26 02:41:47;;;;;;;60.85;29.48;;;;;;;;;;4974337;28;20130;-65
2022/03/26 02:44:13;;;;;;;60.65;29.27;;;;;;;;;;4973964;28;20055;-65
2022/03/26 02:46:39;;;;;;;62.33;29.88;;;;;;;;;;4973924;28;20122;-65
2022/03/26 02:49:06;;;;;;;63.60;30.40;;;;;;;;;;4974472;28;20126;-65
2022/03/26 02:51:32;;;;;;;65.75;30.40;;;;;;;;;;4974281;28;20173;-65
2022/03/26 02:53:58;;;;;;;60.80;29.60;;;;;;;;;;4973846;28;20474;-65
2022/03/26 02:56:24;;;;;;;62.55;29.23;;;;;;;;;;4974413;28;20039;-65
2022/03/26 02:58:50;;;;;;;65.63;30.73;;;;;;;;;;4974392;28;20039;-65
2022/03/26 03:01:16;;;;;;;59.97;29.05;;;;;;;;;;4972499;28;20418;-65
2022/03/26 03:03:42;;;;;;;66.40;30.60;;;;;;;;;;4973964;28;20062;-65
2022/03/26 03:06:09;;;;;;;62.30;30.17;;;;;;;;;;4974179;28;20449;-65
2022/03/26 03:08:35;;;;;;;64.07;29.85;;;;;;;;;;4973468;28;20043;-65
2022/03/26 03:11:01;;;;;;;65.50;30.10;;;;;;;;;;4974029;28;20039;-65
2022/03/26 03:13:27;;;;;;;69.85;30.63;;;;;;;;;;4974170;28;20039;-65
2022/03/26 03:15:53;;;;;;;73.50;31.20;;;;;;;;;;4973602;28;20448;-65
2022/03/26 03:18:19;;;;;;;83.13;37.00;;;;;;;;;;4974203;28;20070;-65
2022/03/26 03:20:45;;;;;;;77.43;34.05;;;;;;;;;;4973318;28;20039;-65
2022/03/26 03:23:13;;;;;;;84.55;37.55;;;;;;;;;;4973236;28;20046;-65
2022/03/26 03:25:39;;;;;;;81.82;35.28;;;;;;;;;;4977682;28;20177;-65
2022/03/26 03:28:06;;;;;;;75.80;33.92;;;;;;;;;;4992027;28;20053;-65
2022/03/26 03:30:32;;;;;;;76.57;33.80;;;;;;;;;;4992520;28;20049;-65
2022/03/26 03:32:58;;;;;;;79.53;35.42;;;;;;;;;;4993143;28;20407;-65
2022/03/26 03:35:24;;;;;;;76.60;33.33;;;;;;;;;;4993126;28;20050;-65
2022/03/26 03:37:50;;;;;;;72.72;34.65;;;;;;;;;;4992046;28;20038;-65
2022/03/26 03:40:17;;;;;;;73.68;32.78;;;;;;;;;;4992815;28;20046;-65
2022/03/26 03:42:43;;;;;;;77.35;33.88;;;;;;;;;;4992615;28;20065;-65
2022/03/26 03:45:10;;;;;;;71.93;32.95;;;;;;;;;;4992239;28;20104;-65
2022/03/26 03:47:37;;;;;;;71.55;33.72;;;;;;;;;;4992523;28;20064;-65
2022/03/26 03:50:04;;;;;;;70.32;32.70;;;;;;;;;;4992852;28;20118;-65
2022/03/26 03:52:30;;;;;;;75.03;33.85;;;;;;;;;;4992109;28;20045;-65
2022/03/26 03:54:57;;;;;;;67.43;31.73;;;;;;;;;;4992372;28;20042;-65
2022/03/26 03:57:23;;;;;;;72.72;32.63;;;;;;;;;;4992480;28;20485;-64
2022/03/26 03:59:49;;;;;;;76.05;31.77;;;;;;;;;;4992192;28;20077;-65
2022/03/26 04:02:16;;;;;;;72.55;31.90;;;;;;;;;;4992728;28;20046;-65
2022/03/26 04:04:42;;;;;;;69.68;31.75;;;;;;;;;;4992484;28;20104;-65
2022/03/26 04:07:09;;;;;;;67.32;31.27;;;;;;;;;;4991681;28;20045;-65
2022/03/26 04:09:35;;;;;;;66.72;29.60;;;;;;;;;;4992537;28;20074;-65
2022/03/26 04:12:02;;;;;;;66.70;31.42;;;;;;;;;;4992620;28;20046;-65
2022/03/26 04:14:29;;;;;;;69.40;32.83;;;;;;;;;;4992093;28;20046;-65
2022/03/26 04:16:55;;;;;;;72.13;31.02;;;;;;;;;;4992326;28;20042;-65
2022/03/26 04:19:21;;;;;;;68.65;29.77;;;;;;;;;;4991212;28;20092;-65
2022/03/26 04:21:48;;;;;;;70.80;31.45;;;;;;;;;;4992050;28;20408;-65
2022/03/26 04:24:14;;;;;;;67.57;30.58;;;;;;;;;;4992294;28;20648;-65
2022/03/26 04:26:40;;;;;;;66.65;31.30;;;;;;;;;;4980350;28;20042;-65
2022/03/26 04:29:07;;;;;;;71.22;31.02;;;;;;;;;;4972457;28;20039;-65
2022/03/26 04:31:33;;;;;;;67.20;31.35;;;;;;;;;;4973026;28;20038;-65
2022/03/26 04:34:01;;;;;;;70.13;30.45;;;;;;;;;;4975770;28;20074;-65
2022/03/26 04:36:30;;;;;;;70.95;31.50;;;;;;;;;;4976217;28;20054;-65
2022/03/26 04:38:59;;;;;;;71.55;31.60;;;;;;;;;;4976708;28;20484;-65
2022/03/26 04:41:26;;;;;;;64.65;29.27;;;;;;;;;;4976798;28;20496;-65
2022/03/26 04:43:52;;;;;;;68.07;30.60;;;;;;;;;;4975783;28;20074;-65
2022/03/26 04:46:18;;;;;;;71.57;31.25;;;;;;;;;;4976599;28;20046;-65
2022/03/26 04:48:48;;;;;;;70.45;31.17;;;;;;;;;;4976333;28;20051;-65
2022/03/26 04:51:14;;;;;;;69.28;30.98;;;;;;;;;;4976206;28;20051;-65
2022/03/26 04:53:40;;;;;;;75.38;31.77;;;;;;;;;;4976577;28;20039;-64
2022/03/26 04:56:06;;;;;;;67.25;30.40;;;;;;;;;;4976475;28;20074;-64
2022/03/26 04:58:32;;;;;;;80.40;34.35;;;;;;;;;;4976005;28;20122;-64
2022/03/26 05:01:00;;;;;;;79.50;34.85;;;;;;;;;;4975359;28;20434;-65
2022/03/26 05:03:26;;;;;;;85.72;36.30;;;;;;;;;;4975319;28;20053;-65
2022/03/26 05:05:52;;;;;;;75.20;35.28;;;;;;;;;;4975830;28;20460;-65
2022/03/26 05:08:18;;;;;;;80.43;37.45;;;;;;;;;;4976318;28;20069;-65
2022/03/26 05:10:45;;;;;;;87.43;37.83;;;;;;;;;;4976147;28;20039;-65
2022/03/26 05:13:11;;;;;;;84.03;34.65;;;;;;;;;;4975462;28;20394;-64
2022/03/26 05:15:38;;;;;;;74.22;32.05;;;;;;;;;;4976321;28;20489;-65
2022/03/26 05:18:04;;;;;;;84.15;35.85;;;;;;;;;;4976124;28;20050;-65
2022/03/26 05:20:30;;;;;;;84.88;36.50;;;;;;;;;;4974343;28;20481;-65
2022/03/26 05:22:56;;;;;;;86.80;35.78;;;;;;;;;;4975855;28;20046;-64
2022/03/26 05:25:22;;;;;;;84.70;35.28;;;;;;;;;;4977534;28;20042;-64
2022/03/26 05:27:49;;;;;;;84.68;34.03;;;;;;;;;;4994782;28;20049;-64
2022/03/26 05:30:16;;;;;;;93.55;38.13;;;;;;;;;;4995630;28;20046;-64
2022/03/26 05:32:42;;;;;;;89.75;37.85;;;;;;;;;;4995101;28;20134;-64
2022/03/26 05:35:13;;;;;;;90.05;38.13;;;;;;;;;;4994293;28;20053;-64
2022/03/26 05:37:40;;;;;;;90.07;37.47;;;;;;;;;;4995121;28;20049;-64
2022/03/26 05:40:07;;;;;;;85.57;36.08;;;;;;;;;;4994995;28;20041;-64
2022/03/26 05:42:35;;;;;;;93.28;37.10;;;;;;;;;;4994315;28;20500;-64
2022/03/26 05:45:01;;;;;;;91.20;38.45;;;;;;;;;;4994512;28;20539;-64
2022/03/26 05:47:28;;;;;;;96.40;42.88;;;;;;;;;;4993798;28;20576;-64
2022/03/26 05:49:53;;;;;;;109.70;44.95;;;;;;;;;;4994549;28;20388;-64
2022/03/26 05:52:20;;;;;;;101.78;43.38;;;;;;;;;;4994968;28;20138;-64
2022/03/26 05:54:46;;;;;;;107.95;42.95;;;;;;;;;;4994892;28;20074;-64
2022/03/26 05:57:13;;;;;;;103.22;42.10;;;;;;;;;;4992990;28;20105;-64
2022/03/26 05:59:39;;;;;;;113.57;45.60;;;;;;;;;;4994806;28;20038;-65
2022/03/26 06:02:05;;;;;;;104.13;42.13;;;;;;;;;;4994934;28;20100;-65
2022/03/26 06:04:31;;;;;;;102.35;42.50;;;;;;;;;;4994019;28;20041;-65
2022/03/26 06:06:59;;;;;;;113.05;46.28;;;;;;;;;;4994764;28;20500;-65
2022/03/26 06:09:25;;;;;;;111.63;47.35;;;;;;;;;;4994649;28;20126;-65
2022/03/26 06:11:51;;;;;;;118.65;47.03;;;;;;;;;;4993911;28;20042;-65
2022/03/26 06:14:18;;;;;;;111.05;47.55;;;;;;;;;;4994171;28;20690;-65
2022/03/26 06:16:45;;;;;;;124.63;50.08;;;;;;;;;;4994608;28;20128;-65
2022/03/26 06:19:12;;;;;;;118.85;48.90;;;;;;;;;;4994622;28;20050;-65
2022/03/26 06:21:38;;;;;;;125.32;49.88;;;;;;;;;;4994144;28;20096;-65
2022/03/26 06:24:05;;;;;;;132.95;52.42;;;;;;;;;;4994515;28;20484;-65
2022/03/26 06:26:31;;;;;;;120.60;49.13;;;;;;;;;;4982295;28;20073;-65
2022/03/26 06:28:57;;;;;;;124.50;50.55;;;;;;;;;;4974375;28;20133;-65
2022/03/26 06:31:24;;;;;;;127.90;52.03;;;;;;;;;;4974695;28;20103;-65
2022/03/26 06:33:51;;;;;;;133.68;55.53;;;;;;;;;;4974757;28;20481;-65
2022/03/26 06:36:18;;;;;;;147.55;59.72;;;;;;;;;;4973648;28;20043;-65
2022/03/26 06:38:44;;;;;;;140.25;57.28;;;;;;;;;;4974572;28;20117;-65
2022/03/26 06:41:10;;;;;;;147.05;62.67;;;;;;;;;;4974656;28;20045;-65
2022/03/26 06:43:37;;;;;;;156.48;61.70;;;;;;;;;;4973701;28;20054;-65
2022/03/26 06:46:04;;;;;;;150.93;63.72;;;;;;;;;;4973125;28;20043;-65
2022/03/26 06:48:31;;;;;;;161.73;66.88;;;;;;;;;;4973221;28;20137;-65
2022/03/26 06:51:00;;;;;;;150.18;66.50;;;;;;;;;;4973974;28;20540;-65
2022/03/26 06:53:26;;;;;;;165.88;68.75;;;;;;;;;;4974395;28;20483;-65
2022/03/26 06:55:52;;;;;;;165.10;67.07;;;;;;;;;;4973391;28;20134;-65
2022/03/26 06:58:18;;;;;;;169.70;69.90;;;;;;;;;;4973850;28;20047;-65
2022/03/26 07:00:44;;;;;;;170.10;71.55;;;;;;;;;;4974362;28;20110;-65
2022/03/26 07:03:10;;;;;;;169.75;67.90;;;;;;;;;;4974533;28;20130;-65
2022/03/26 07:05:37;;;;;;;157.57;66.95;;;;;;;;;;4973555;28;20089;-65
2022/03/26 07:08:04;;;;;;;153.30;63.00;;;;;;;;;;4973891;28;20050;-65
2022/03/26 07:10:30;;;;;;;151.98;63.70;;;;;;;;;;4972908;28;20073;-65
2022/03/26 07:12:56;;;;;;;157.52;65.65;;;;;;;;;;4973631;28;20097;-65
2022/03/26 07:15:22;;;;;;;160.40;65.93;;;;;;;;;;4974099;28;20053;-65
2022/03/26 07:17:48;;;;;;;154.00;66.10;;;;;;;;;;4973794;28;20084;-65
2022/03/26 07:20:14;;;;;;;153.35;64.47;;;;;;;;;;4973306;28;20089;-65
2022/03/26 07:22:44;;;;;;;143.63;63.50;;;;;;;;;;4973662;28;20044;-65
2022/03/26 07:25:10;;;;;;;150.90;63.58;;;;;;;;;;4973705;28;20045;-65
2022/03/26 07:27:37;;;;;;;148.70;63.50;;;;;;;;;;4973161;28;20366;-65
2022/03/26 07:30:04;;;;;;;146.75;64.78;;;;;;;;;;4973457;28;20038;-65
2022/03/26 07:32:30;;;;;;;155.95;65.63;;;;;;;;;;4973440;28;20101;-65
2022/03/26 07:34:56;;;;;;;160.98;67.93;;;;;;;;;;4972930;28;20130;-65
2022/03/26 07:37:23;;;;;;;159.10;70.50;;;;;;;;;;4971987;28;20051;-65
2022/03/26 07:39:49;;;;;;;161.73;68.65;;;;;;;;;;4973548;28;20369;-65
2022/03/26 07:42:15;;;;;;;146.52;62.08;;;;;;;;;;4972247;28;20520;-65
2022/03/26 07:44:42;;;;;;;150.40;64.70;;;;;;;;;;4973481;28;20083;-65
2022/03/26 07:47:08;;;;;;;144.60;63.78;;;;;;;;;;4973602;28;20050;-65
2022/03/26 07:49:34;;;;;;;138.35;60.40;;;;;;;;;;4972811;28;20381;-65
2022/03/26 07:52:00;;;;;;;133.18;59.63;;;;;;;;;;4973300;28;20058;-65
2022/03/26 07:54:27;;;;;;;112.55;50.85;;;;;;;;;;4973338;28;20086;-65
2022/03/26 07:56:53;;;;;;;116.05;52.00;;;;;;;;;;4972582;28;20062;-65
2022/03/26 07:59:19;;;;;;;117.50;49.88;;;;;;;;;;4973350;28;20039;-65
2022/03/26 08:01:45;;;;;;;112.72;49.25;;;;;;;;;;4973384;28;20050;-65
2022/03/26 08:04:11;;;;;;;107.50;47.90;;;;;;;;;;4972599;28;20412;-65
2022/03/26 08:06:37;;;;;;;107.28;48.90;;;;;;;;;;4972781;28;20046;-65
2022/03/26 08:09:03;;;;;;;101.00;45.20;;;;;;;;;;4973147;28;20652;-65
2022/03/26 08:11:29;;;;;;;104.22;46.25;;;;;;;;;;4972486;28;20149;-65
2022/03/26 08:13:55;;;;;;;102.50;45.95;;;;;;;;;;4972996;28;20605;-65
2022/03/26 08:16:21;;;;;;;105.15;45.85;;;;;;;;;;4973055;28;20511;-65
2022/03/26 08:18:47;;;;;;;95.55;42.80;;;;;;;;;;4972353;28;20129;-65
2022/03/26 08:21:15;;;;;;;98.97;41.40;;;;;;;;;;4972967;28;20121;-65
2022/03/26 08:23:41;;;;;;;101.97;45.40;;;;;;;;;;4972943;28;20568;-65
2022/03/26 08:26:20;;;;;;;90.00;39.83;;;;;;;;;;4979435;28;20037;-65
2022/03/26 08:28:46;;;;;;;83.35;39.88;;;;;;;;;;4992251;28;20045;-65
2022/03/26 08:31:13;;;;;;;86.70;38.15;;;;;;;;;;4990724;28;20038;-65
2022/03/26 08:33:39;;;;;;;92.22;40.45;;;;;;;;;;4991586;28;20109;-65
2022/03/26 08:36:06;;;;;;;87.80;37.80;;;;;;;;;;4992047;28;20042;-65
2022/03/26 08:38:32;;;;;;;86.28;37.67;;;;;;;;;;4992138;28;20043;-65
2022/03/26 08:40:58;;;;;;;85.32;36.30;;;;;;;;;;4991530;28;20035;-65
2022/03/26 08:43:25;;;;;;;79.68;35.05;;;;;;;;;;4991891;28;20062;-65
2022/03/26 08:45:51;;;;;;;72.68;32.38;;;;;;;;;;4992111;28;20077;-65
2022/03/26 08:48:17;;;;;;;74.97;32.95;;;;;;;;;;4991378;28;20046;-65
2022/03/26 08:50:44;;;;;;;83.28;33.67;;;;;;;;;;4992095;28;20042;-65
2022/03/26 08:53:11;;;;;;;73.80;33.50;;;;;;;;;;4991903;28;20416;-65
2022/03/26 08:55:37;;;;;;;77.35;34.45;;;;;;;;;;4991082;28;20050;-65
2022/03/26 08:58:03;;;;;;;78.82;33.58;;;;;;;;;;4991935;28;20066;-65
2022/03/26 09:00:29;;;;;;;79.05;34.60;;;;;;;;;;4991995;28;20042;-65
2022/03/26 09:02:56;;;;;;;75.85;33.22;;;;;;;;;;4991344;28;20050;-65
2022/03/26 09:05:22;;;;;;;77.45;34.80;;;;;;;;;;4991820;28;20141;-65
2022/03/26 09:07:48;;;;;;;74.10;34.08;;;;;;;;;;4991927;28;20130;-65
2022/03/26 09:10:14;;;;;;;75.15;33.67;;;;;;;;;;4991255;28;20451;-65
2022/03/26 09:12:40;;;;;;;74.00;34.88;;;;;;;;;;4991427;28;20050;-65
2022/03/26 09:15:07;;;;;;;77.10;35.15;;;;;;;;;;4991831;28;20046;-65
2022/03/26 09:17:33;;;;;;;78.50;36.95;;;;;;;;;;4991066;28;20535;-65
2022/03/26 09:20:01;;;;;;;72.13;34.08;;;;;;;;;;4994662;28;20619;-65
2022/03/26 09:22:27;;;;;;;76.45;34.58;;;;;;;;;;4995479;28;20053;-65
2022/03/26 09:24:53;;;;;;;69.70;30.42;;;;;;;;;;4994838;28;20042;-65
2022/03/26 09:27:19;;;;;;;71.15;30.70;;;;;;;;;;4978246;28;20051;-65
2022/03/26 09:29:45;;;;;;;55.85;25.67;;;;;;;;;;4975963;28;20505;-65
2022/03/26 09:32:11;;;;;;;58.10;26.95;;;;;;;;;;4975117;28;20050;-65
2022/03/26 09:34:37;;;;;;;61.58;28.27;;;;;;;;;;4975855;28;20497;-65
2022/03/26 09:37:03;;;;;;;54.88;26.23;;;;;;;;;;4975407;28;20054;-65
2022/03/26 09:39:29;;;;;;;53.42;26.38;;;;;;;;;;4974713;28;20058;-65
2022/03/26 09:41:56;;;;;;;52.35;26.52;;;;;;;;;;4975548;28;20065;-65
2022/03/26 09:44:22;;;;;;;57.20;28.25;;;;;;;;;;4975309;28;20058;-65
2022/03/26 09:46:48;;;;;;;57.22;27.92;;;;;;;;;;4973616;28;20069;-65
2022/03/26 09:49:15;;;;;;;57.38;27.70;;;;;;;;;;4975517;28;20096;-65
2022/03/26 09:51:41;;;;;;;54.75;28.90;;;;;;;;;;4975372;28;20470;-65
2022/03/26 09:54:11;;;;;;;59.88;30.08;;;;;;;;;;4974669;28;20217;-65
2022/03/26 09:56:38;;;;;;;54.92;26.05;;;;;;;;;;4975172;28;20043;-65
2022/03/26 09:59:04;;;;;;;52.83;27.30;;;;;;;;;;4975274;28;20046;-65
2022/03/26 10:01:30;;;;;;;53.83;27.60;;;;;;;;;;4974742;28;20788;-65
2022/03/26 10:04:11;;;;;;;48.25;26.20;;;;;;;;;;4975291;28;20050;-65
2022/03/26 10:06:38;;;;;;;47.78;25.10;;;;;;;;;;4975041;28;20513;-65
2022/03/26 10:09:04;;;;;;;40.95;20.85;;;;;;;;;;4974607;28;20046;-65
2022/03/26 10:11:33;;;;;;;43.08;22.27;;;;;;;;;;4975209;28;20525;-65
2022/03/26 10:14:00;;;;;;;42.03;20.67;;;;;;;;;;4975287;28;20539;-65
2022/03/26 10:16:26;;;;;;;38.65;19.77;;;;;;;;;;4974452;28;20206;-65
2022/03/26 10:18:53;;;;;;;40.85;22.13;;;;;;;;;;4974768;28;20054;-65
2022/03/26 10:21:20;;;;;;;41.38;23.20;;;;;;;;;;4975053;28;20038;-65
2022/03/26 10:23:46;;;;;;;39.88;20.23;;;;;;;;;;4973211;28;20043;-65
2022/03/26 10:26:13;;;;;;;37.63;20.55;;;;;;;;;;4983012;28;20031;-65
2022/03/26 10:28:40;;;;;;;35.58;20.80;;;;;;;;;;4994517;28;20042;-65
2022/03/26 10:34:11;;;;;;;31.95;18.95;;;;;;;;;;4994153;28;20057;-65
2022/03/26 10:36:42;;;;;;;37.85;20.95;;;;;;;;;;4994189;28;20391;-65
2022/03/26 10:39:14;;;;;;;32.38;20.30;;;;;;;;;;4993570;28;20053;-65
2022/03/26 10:41:40;;;;;;;33.70;20.50;;;;;;;;;;4993852;28;20042;-65
2022/03/26 10:44:13;;;;;;;36.00;19.65;;;;;;;;;;4993606;28;20065;-65
2022/03/26 10:46:43;;;;;;;32.53;19.45;;;;;;;;;;4991903;28;20069;-65
2022/03/26 10:49:11;;;;;;;32.35;19.98;;;;;;;;;;4994027;28;20507;-65
2022/03/26 10:51:38;;;;;;;33.63;18.25;;;;;;;;;;4993892;28;20121;-65
2022/03/26 10:54:09;;;;;;;31.50;19.17;;;;;;;;;;4992894;28;20129;-65
2022/03/26 10:56:35;;;;;;;38.00;19.38;;;;;;;;;;4993548;28;20046;-65
2022/03/26 10:59:02;;;;;;;26.33;16.95;;;;;;;;;;4993798;28;20057;-65
2022/03/26 11:01:28;;;;;;;29.60;17.60;;;;;;;;;;4993123;28;20046;-65
2022/03/26 11:03:54;;;;;;;29.02;16.48;;;;;;;;;;4993286;28;20078;-65
2022/03/26 11:06:22;;;;;;;30.73;16.30;;;;;;;;;;4993495;28;20431;-65
2022/03/26 11:08:49;;;;;;;25.45;15.88;;;;;;;;;;4992655;28;20042;-65
2022/03/26 11:11:15;;;;;;;26.42;15.52;;;;;;;;;;4993331;28;20368;-65
2022/03/26 11:13:52;;;;;;;24.23;14.98;;;;;;;;;;4993498;28;20161;-65
2022/03/26 11:16:27;;;;;;;23.52;14.48;;;;;;;;;;4992747;28;20487;-65
2022/03/26 11:19:12;;;;;;;24.90;15.55;;;;;;;;;;4993398;28;20142;-65
2022/03/26 11:21:41;;;;;;;23.17;14.35;;;;;;;;;;4993153;28;20052;-65
2022/03/26 11:24:41;;;;;;;19.40;13.85;;;;;;;;;;4992566;28;20042;-65
2022/03/26 11:27:29;;;;;;;24.35;12.55;;;;;;;;;;4935088;28;20055;-65
2022/03/26 11:29:55;;;;;;;22.88;12.63;;;;;;;;;;4973846;28;20675;-65
2022/03/26 11:32:29;;;;;;;23.52;13.38;;;;;;;;;;4972922;28;20051;-65
2022/03/26 11:34:59;;;;;;;21.58;14.38;;;;;;;;;;4973680;28;20039;-65
2022/03/26 11:37:25;;;;;;;21.02;13.80;;;;;;;;;;4973050;28;20039;-65
2022/03/26 11:39:52;;;;;;;20.83;12.63;;;;;;;;;;4973189;28;20125;-65
2022/03/26 11:42:37;;;;;;;23.25;13.20;;;;;;;;;;4972685;28;20177;-65
2022/03/26 11:51:11;;;;;;;23.63;12.75;;;;;;;;;;4973392;28;20046;-65
2022/03/26 11:53:37;;;;;;;20.52;11.63;;;;;;;;;;4972698;28;20093;-65
2022/03/26 11:56:04;;;;;;;20.10;11.32;;;;;;;;;;4972935;28;20125;-65
2022/03/26 11:58:31;;;;;;;19.95;11.05;;;;;;;;;;4973267;28;20054;-65
2022/03/26 12:01:01;;;;;;;17.90;12.07;;;;;;;;;;4972669;28;20074;-65
2022/03/26 12:03:29;;;;;;;16.95;10.93;;;;;;;;;;4973200;28;20544;-66
2022/03/26 12:08:52;;;;;;;16.08;11.20;;;;;;;;;;4972464;28;20072;-65
2022/03/26 12:11:21;;;;;;;18.90;10.70;;;;;;;;;;4973193;28;20043;-66
2022/03/26 12:13:59;;;;;;;14.60;9.55;;;;;;;;;;4973016;28;20388;-65
2022/03/26 12:16:46;;;;;;;18.35;10.05;;;;;;;;;;4972326;28;20070;-65
2022/03/26 12:19:12;;;;;;;17.55;10.35;;;;;;;;;;4972622;28;20054;-65
2022/03/26 12:21:50;;;;;;;16.77;9.77;;;;;;;;;;4972995;28;20042;-65
2022/03/26 12:24:17;;;;;;;18.98;9.65;;;;;;;;;;4972427;28;20053;-65
2022/03/26 12:26:49;;;;;;;13.00;8.65;;;;;;;;;;4984649;28;20094;-65
2022/03/26 12:29:16;;;;;;;17.30;9.40;;;;;;;;;;4992056;28;20038;-65
2022/03/26 12:31:42;;;;;;;15.60;8.70;;;;;;;;;;4991917;28;20038;-65
2022/03/26 12:34:08;;;;;;;14.02;9.23;;;;;;;;;;4991002;28;20137;-65
2022/03/26 12:36:37;;;;;;;11.73;7.90;;;;;;;;;;4992297;28;20047;-65
2022/03/26 12:39:04;;;;;;;11.85;8.10;;;;;;;;;;5006926;28;20125;-65
2022/03/26 12:41:31;;;;;;;13.93;8.13;;;;;;;;;;4992104;28;20041;-65
2022/03/26 12:43:59;;;;;;;12.52;7.40;;;;;;;;;;4991861;28;20090;-65
2022/03/26 12:46:35;;;;;;;11.63;7.20;;;;;;;;;;4991632;28;20428;-65
2022/03/26 12:49:08;;;;;;;11.20;7.28;;;;;;;;;;4992109;28;20154;-65
2022/03/26 12:51:34;;;;;;;11.68;7.20;;;;;;;;;;4991129;28;20050;-65
2022/03/26 12:54:00;;;;;;;9.80;6.63;;;;;;;;;;4993668;28;20654;-65
2022/03/26 12:56:26;;;;;;;9.30;6.25;;;;;;;;;;4995842;28;20617;-65
2022/03/26 12:58:58;;;;;;;10.55;6.85;;;;;;;;;;4995588;28;20050;-65
2022/03/26 13:01:25;;;;;;;9.15;6.60;;;;;;;;;;4996028;28;20039;-65
2022/03/26 13:03:51;;;;;;;9.82;6.25;;;;;;;;;;4995922;28;20042;-65
2022/03/26 13:06:19;;;;;;;13.27;6.70;;;;;;;;;;4995443;28;20042;-65
2022/03/26 13:08:53;;;;;;;8.07;6.38;;;;;;;;;;4995884;28;20093;-65
2022/03/26 13:11:21;;;;;;;10.18;5.97;;;;;;;;;;4995847;28;20042;-65
2022/03/26 13:13:48;;;;;;;6.05;4.88;;;;;;;;;;4995027;28;20074;-65
2022/03/26 13:16:15;;;;;;;7.13;4.53;;;;;;;;;;4995604;28;20081;-65
2022/03/26 13:18:42;;;;;;;6.47;4.28;;;;;;;;;;4995352;28;20054;-65
2022/03/26 13:21:09;;;;;;;6.50;4.88;;;;;;;;;;4994866;28;20053;-66
2022/03/26 13:23:35;;;;;;;5.65;4.22;;;;;;;;;;4995300;28;20079;-66
2022/03/26 13:26:05;;;;;;;7.30;4.70;;;;;;;;;;4988400;28;20039;-66
2022/03/26 13:28:37;;;;;;;6.22;4.18;;;;;;;;;;4975581;28;20035;-66
2022/03/26 13:31:23;;;;;;;6.78;4.35;;;;;;;;;;4975888;28;20038;-66
2022/03/26 13:33:49;;;;;;;7.63;4.43;;;;;;;;;;4975843;28;20409;-66
2022/03/26 13:36:25;;;;;;;6.57;4.57;;;;;;;;;;4974857;28;20039;-66
2022/03/26 13:38:51;;;;;;;5.82;4.20;;;;;;;;;;4974411;28;20062;-66
2022/03/26 13:41:19;;;;;;;7.10;4.53;;;;;;;;;;4975755;28;20041;-66
2022/03/26 13:43:46;;;;;;;7.43;4.25;;;;;;;;;;4974555;28;20118;-66
2022/03/26 13:46:13;;;;;;;5.88;3.63;;;;;;;;;;4975448;28;20383;-66
2022/03/26 13:48:52;;;;;;;6.80;4.28;;;;;;;;;;4975323;28;20118;-66
2022/03/26 13:51:26;;;;;;;5.93;3.95;;;;;;;;;;4974805;28;20569;-66
2022/03/26 13:53:52;;;;;;;7.30;4.22;;;;;;;;;;4975384;28;20053;-66
2022/03/26 13:56:18;;;;;;;8.02;4.60;;;;;;;;;;4975350;28;20039;-66
2022/03/26 13:58:50;;;;;;;7.13;4.93;;;;;;;;;;4974855;28;20069;-66
2022/03/26 14:01:17;;;;;;;7.35;4.20;;;;;;;;;;4975346;28;20042;-66
2022/03/26 14:03:43;;;;;;;7.80;4.07;;;;;;;;;;4975389;28;20449;-65
2022/03/26 14:06:09;;;;;;;9.25;4.15;;;;;;;;;;4974519;28;20043;-65
2022/03/26 14:08:36;;;;;;;6.40;3.83;;;;;;;;;;4975454;28;20397;-65
2022/03/26 14:11:02;;;;;;;5.80;4.10;;;;;;;;;;4975023;28;20043;-65
2022/03/26 14:13:28;;;;;;;4.68;3.08;;;;;;;;;;4974598;28;20054;-65
2022/03/26 14:15:55;;;;;;;5.60;4.07;;;;;;;;;;4975079;28;20038;-65
2022/03/26 14:18:21;;;;;;;5.13;3.15;;;;;;;;;;4975303;28;20034;-65
2022/03/26 14:20:48;;;;;;;5.40;2.90;;;;;;;;;;4974536;28;20150;-65
2022/03/26 14:23:14;;;;;;;3.47;2.70;;;;;;;;;;4974730;28;20034;-65
2022/03/26 14:25:41;;;;;;;3.13;2.22;;;;;;;;;;4978552;28;20384;-65
2022/03/26 14:28:08;;;;;;;4.28;2.80;;;;;;;;;;4993769;28;20444;-66
2022/03/26 14:30:34;;;;;;;4.05;2.67;;;;;;;;;;5009279;28;20113;-66